KBDN

Bend Municipal Airport

Bend, Oregon, USA
METAR KBDN 181615Z AUTO 00000KT 10SM CLR 03/M03 A3014 RMK AO2
Observed Flight Rules
Dec-18 @ 16:15 UTC (20 minutes ago) Visual Flight Rules
Wind Visibility Clouds
Calm 10 miles
  • Clear skies
Temperatures Readings
Current 3°C / 37°F
Dewpoint -3°C / 27°F
Humidity 65%
Altimeter 30.14" Hg
Pressure 1021 hPa
Elevation 1055
METAR KBDN 181615Z AUTO 00000KT 10SM CLR 03/M03 A3014 RMK AO2
Observed Flight Rules
Dec-18 @ 16:15 UTC
(20 minutes ago)
VFR
Wind Visibility
Calm 10 miles
Clouds
  • Clear skies
Temperature Dewpoint
3°C / 37°F -3°C / 27°F
Humidity Altimeter Pressure
65% 30.14" Hg 1021 hPa